sensor_id;sensor_type;location;lat;lon;timestamp;pressure;altitude;pressure_sealevel;temperature;humidity
64211;BME280;50528;48.514;14.394;2023-04-30T00:01:02;93991.61;;;10.03;74.43
64211;BME280;50528;48.514;14.394;2023-04-30T00:01:37;93988.27;;;10.02;74.46
64211;BME280;50528;48.514;14.394;2023-04-30T00:02:11;93990.13;;;10.03;74.57
64211;BME280;50528;48.514;14.394;2023-04-30T00:02:44;93984.73;;;10.06;74.36
64211;BME280;50528;48.514;14.394;2023-04-30T00:03:18;93988.98;;;10.03;74.33
64211;BME280;50528;48.514;14.394;2023-04-30T00:03:52;93988.37;;;10.02;74.51
64211;BME280;50528;48.514;14.394;2023-04-30T00:04:26;93985.23;;;10.02;74.48
64211;BME280;50528;48.514;14.394;2023-04-30T00:04:59;93985.13;;;10.01;74.46
64211;BME280;50528;48.514;14.394;2023-04-30T00:05:33;93985.77;;;9.98;74.44
64211;BME280;50528;48.514;14.394;2023-04-30T00:06:06;93988.86;;;10.01;74.46
64211;BME280;50528;48.514;14.394;2023-04-30T00:06:40;93986.41;;;10.00;74.42
64211;BME280;50528;48.514;14.394;2023-04-30T00:07:13;93989.30;;;9.99;74.48
64211;BME280;50528;48.514;14.394;2023-04-30T00:07:47;93992.25;;;10.01;74.48
64211;BME280;50528;48.514;14.394;2023-04-30T00:08:22;93990.00;;;10.01;74.46
64211;BME280;50528;48.514;14.394;2023-04-30T00:08:56;93989.73;;;10.00;74.32
64211;BME280;50528;48.514;14.394;2023-04-30T00:09:29;93994.95;;;9.99;74.39
64211;BME280;50528;48.514;14.394;2023-04-30T00:10:03;93989.70;;;9.99;74.45
64211;BME280;50528;48.514;14.394;2023-04-30T00:10:37;93989.14;;;10.00;74.35
64211;BME280;50528;48.514;14.394;2023-04-30T00:11:11;93989.38;;;10.01;74.38
64211;BME280;50528;48.514;14.394;2023-04-30T00:11:44;93986.74;;;9.98;74.37
64211;BME280;50528;48.514;14.394;2023-04-30T00:12:18;93988.48;;;9.98;74.54
64211;BME280;50528;48.514;14.394;2023-04-30T00:12:52;93989.61;;;10.00;74.52
64211;BME280;50528;48.514;14.394;2023-04-30T00:13:26;93987.10;;;10.00;74.58
64211;BME280;50528;48.514;14.394;2023-04-30T00:14:00;93988.99;;;10.00;74.60
64211;BME280;50528;48.514;14.394;2023-04-30T00:14:36;93990.15;;;10.01;74.50
64211;BME280;50528;48.514;14.394;2023-04-30T00:15:13;93991.34;;;10.00;74.61
64211;BME280;50528;48.514;14.394;2023-04-30T00:15:46;93993.56;;;10.01;74.51
64211;BME280;50528;48.514;14.394;2023-04-30T00:16:19;93994.44;;;9.99;74.53
64211;BME280;50528;48.514;14.394;2023-04-30T00:16:53;93991.50;;;10.00;74.54
64211;BME280;50528;48.514;14.394;2023-04-30T00:17:26;93992.88;;;10.00;74.37
64211;BME280;50528;48.514;14.394;2023-04-30T00:17:59;93995.27;;;9.99;74.24
64211;BME280;50528;48.514;14.394;2023-04-30T00:18:33;93990.98;;;10.00;74.20
64211;BME280;50528;48.514;14.394;2023-04-30T00:19:06;93994.85;;;9.96;74.39
64211;BME280;50528;48.514;14.394;2023-04-30T00:19:41;93993.27;;;9.96;74.47
64211;BME280;50528;48.514;14.394;2023-04-30T00:20:14;93994.39;;;9.97;74.42
64211;BME280;50528;48.514;14.394;2023-04-30T00:20:48;93996.02;;;9.96;74.43
64211;BME280;50528;48.514;14.394;2023-04-30T00:21:24;93996.39;;;9.93;74.53
64211;BME280;50528;48.514;14.394;2023-04-30T00:21:57;93998.04;;;9.92;74.51
64211;BME280;50528;48.514;14.394;2023-04-30T00:22:33;93997.56;;;9.91;74.55
64211;BME280;50528;48.514;14.394;2023-04-30T00:23:06;93995.70;;;9.90;74.69
64211;BME280;50528;48.514;14.394;2023-04-30T00:23:40;93995.80;;;9.89;74.53
64211;BME280;50528;48.514;14.394;2023-04-30T00:24:13;93992.10;;;9.91;74.69
64211;BME280;50528;48.514;14.394;2023-04-30T00:24:46;93995.73;;;9.92;74.66
64211;BME280;50528;48.514;14.394;2023-04-30T00:25:20;93991.41;;;9.91;74.56
64211;BME280;50528;48.514;14.394;2023-04-30T00:25:56;93992.95;;;9.92;74.51
64211;BME280;50528;48.514;14.394;2023-04-30T00:26:30;93991.35;;;9.91;74.56
64211;BME280;50528;48.514;14.394;2023-04-30T00:27:03;93992.66;;;9.90;74.63
64211;BME280;50528;48.514;14.394;2023-04-30T00:27:36;93991.79;;;9.91;74.57
64211;BME280;50528;48.514;14.394;2023-04-30T00:28:12;93987.63;;;9.91;74.50
64211;BME280;50528;48.514;14.394;2023-04-30T00:28:46;93989.77;;;9.90;74.62
64211;BME280;50528;48.514;14.394;2023-04-30T00:29:19;93989.03;;;9.86;74.51
64211;BME280;50528;48.514;14.394;2023-04-30T00:29:53;93987.39;;;9.88;74.64
64211;BME280;50528;48.514;14.394;2023-04-30T00:30:27;93987.65;;;9.89;74.61
64211;BME280;50528;48.514;14.394;2023-04-30T00:31:00;93988.64;;;9.88;74.71
64211;BME280;50528;48.514;14.394;2023-04-30T00:31:34;93988.77;;;9.88;74.57
64211;BME280;50528;48.514;14.394;2023-04-30T00:32:08;93985.63;;;9.87;74.49
64211;BME280;50528;48.514;14.394;2023-04-30T00:32:41;93989.40;;;9.86;74.65
64211;BME280;50528;48.514;14.394;2023-04-30T00:33:15;93983.98;;;9.84;74.46
64211;BME280;50528;48.514;14.394;2023-04-30T00:33:48;93986.63;;;9.84;74.59
64211;BME280;50528;48.514;14.394;2023-04-30T00:34:21;93986.20;;;9.83;74.62
64211;BME280;50528;48.514;14.394;2023-04-30T00:34:55;93986.65;;;9.81;74.54
64211;BME280;50528;48.514;14.394;2023-04-30T00:35:28;93991.54;;;9.79;74.71
64211;BME280;50528;48.514;14.394;2023-04-30T00:36:02;93990.05;;;9.79;74.65
64211;BME280;50528;48.514;14.394;2023-04-30T00:36:36;93988.84;;;9.78;74.78
64211;BME280;50528;48.514;14.394;2023-04-30T00:37:09;93989.46;;;9.77;74.75
64211;BME280;50528;48.514;14.394;2023-04-30T00:37:43;93989.20;;;9.76;74.74
64211;BME280;50528;48.514;14.394;2023-04-30T00:38:16;93986.58;;;9.77;74.77
64211;BME280;50528;48.514;14.394;2023-04-30T00:38:50;93992.23;;;9.76;74.80
64211;BME280;50528;48.514;14.394;2023-04-30T00:39:24;93991.16;;;9.73;74.87
64211;BME280;50528;48.514;14.394;2023-04-30T00:39:57;93989.72;;;9.74;74.86
64211;BME280;50528;48.514;14.394;2023-04-30T00:40:36;93987.96;;;9.72;74.89
64211;BME280;50528;48.514;14.394;2023-04-30T00:41:10;93986.80;;;9.72;75.00
64211;BME280;50528;48.514;14.394;2023-04-30T00:41:44;93987.97;;;9.72;75.06
64211;BME280;50528;48.514;14.394;2023-04-30T00:42:18;93987.23;;;9.72;74.95
64211;BME280;50528;48.514;14.394;2023-04-30T00:42:51;93989.65;;;9.71;75.04
64211;BME280;50528;48.514;14.394;2023-04-30T00:43:27;93988.61;;;9.70;75.14
64211;BME280;50528;48.514;14.394;2023-04-30T00:44:01;93986.98;;;9.68;75.16
64211;BME280;50528;48.514;14.394;2023-04-30T00:44:34;93988.17;;;9.70;75.22
64211;BME280;50528;48.514;14.394;2023-04-30T00:45:08;93989.52;;;9.69;75.24
64211;BME280;50528;48.514;14.394;2023-04-30T00:45:42;93986.79;;;9.68;75.23
64211;BME280;50528;48.514;14.394;2023-04-30T00:46:15;93986.19;;;9.67;75.18
64211;BME280;50528;48.514;14.394;2023-04-30T00:46:51;93987.61;;;9.67;75.21
64211;BME280;50528;48.514;14.394;2023-04-30T00:47:25;93988.48;;;9.66;75.20
64211;BME280;50528;48.514;14.394;2023-04-30T00:47:59;93986.42;;;9.65;75.34
64211;BME280;50528;48.514;14.394;2023-04-30T00:48:32;93986.57;;;9.64;75.32
64211;BME280;50528;48.514;14.394;2023-04-30T00:49:06;93993.03;;;9.64;75.28
64211;BME280;50528;48.514;14.394;2023-04-30T00:49:39;93992.23;;;9.66;75.46
64211;BME280;50528;48.514;14.394;2023-04-30T00:50:14;93990.15;;;9.65;75.42
64211;BME280;50528;48.514;14.394;2023-04-30T00:50:48;93988.63;;;9.65;75.36
64211;BME280;50528;48.514;14.394;2023-04-30T00:51:22;93988.55;;;9.64;75.40
64211;BME280;50528;48.514;14.394;2023-04-30T00:51:55;93991.14;;;9.64;75.44
64211;BME280;50528;48.514;14.394;2023-04-30T00:52:30;93990.50;;;9.64;75.48
64211;BME280;50528;48.514;14.394;2023-04-30T00:53:03;93990.39;;;9.64;75.36
64211;BME280;50528;48.514;14.394;2023-04-30T00:53:38;93991.33;;;9.67;75.38
64211;BME280;50528;48.514;14.394;2023-04-30T00:54:12;93988.98;;;9.64;75.41
64211;BME280;50528;48.514;14.394;2023-04-30T00:54:47;93990.20;;;9.64;75.42
64211;BME280;50528;48.514;14.394;2023-04-30T00:55:20;93987.26;;;9.62;75.43
64211;BME280;50528;48.514;14.394;2023-04-30T00:55:54;93991.17;;;9.60;75.49
64211;BME280;50528;48.514;14.394;2023-04-30T00:56:28;93992.33;;;9.60;75.58
64211;BME280;50528;48.514;14.394;2023-04-30T00:57:04;93990.44;;;9.63;75.51
64211;BME280;50528;48.514;14.394;2023-04-30T00:57:38;93989.72;;;9.62;75.53
64211;BME280;50528;48.514;14.394;2023-04-30T00:58:14;93987.17;;;9.60;75.63
64211;BME280;50528;48.514;14.394;2023-04-30T00:58:48;93989.02;;;9.60;75.59
64211;BME280;50528;48.514;14.394;2023-04-30T00:59:24;93987.33;;;9.59;75.59
64211;BME280;50528;48.514;14.394;2023-04-30T00:59:59;93990.00;;;9.59;75.63
64211;BME280;50528;48.514;14.394;2023-04-30T01:00:33;93983.98;;;9.52;75.62
64211;BME280;50528;48.514;14.394;2023-04-30T01:01:07;93993.09;;;9.56;75.62
64211;BME280;50528;48.514;14.394;2023-04-30T01:01:41;93993.88;;;9.57;75.79
64211;BME280;50528;48.514;14.394;2023-04-30T01:02:14;93991.90;;;9.57;75.69
64211;BME280;50528;48.514;14.394;2023-04-30T01:02:49;93994.00;;;9.57;75.77
64211;BME280;50528;48.514;14.394;2023-04-30T01:03:23;93992.31;;;9.57;75.74
64211;BME280;50528;48.514;14.394;2023-04-30T01:03:57;93993.73;;;9.57;75.78
64211;BME280;50528;48.514;14.394;2023-04-30T01:04:30;93993.47;;;9.57;75.74
64211;BME280;50528;48.514;14.394;2023-04-30T01:05:06;93992.55;;;9.58;75.75
64211;BME280;50528;48.514;14.394;2023-04-30T01:05:40;93994.31;;;9.57;75.72
64211;BME280;50528;48.514;14.394;2023-04-30T01:06:13;93994.16;;;9.57;75.75
64211;BME280;50528;48.514;14.394;2023-04-30T01:06:47;93998.23;;;9.57;75.67
64211;BME280;50528;48.514;14.394;2023-04-30T01:07:21;93996.21;;;9.55;75.76
64211;BME280;50528;48.514;14.394;2023-04-30T01:07:55;93998.63;;;9.54;75.64
64211;BME280;50528;48.514;14.394;2023-04-30T01:08:29;93995.90;;;9.55;75.72
64211;BME280;50528;48.514;14.394;2023-04-30T01:09:04;93998.66;;;9.53;75.67
64211;BME280;50528;48.514;14.394;2023-04-30T01:09:38;94000.65;;;9.53;75.82
64211;BME280;50528;48.514;14.394;2023-04-30T01:10:13;93998.02;;;9.53;75.83
64211;BME280;50528;48.514;14.394;2023-04-30T01:11:16;93999.80;;;9.52;75.86
64211;BME280;50528;48.514;14.394;2023-04-30T01:12:55;94002.26;;;9.44;75.83
64211;BME280;50528;48.514;14.394;2023-04-30T01:13:43;93999.42;;;9.43;75.94
64211;BME280;50528;48.514;14.394;2023-04-30T01:14:37;93999.48;;;9.40;75.94
64211;BME280;50528;48.514;14.394;2023-04-30T01:15:58;94002.36;;;9.37;76.10
64211;BME280;50528;48.514;14.394;2023-04-30T01:16:40;94004.19;;;9.37;76.13
64211;BME280;50528;48.514;14.394;2023-04-30T01:18:30;94001.80;;;9.34;76.25
64211;BME280;50528;48.514;14.394;2023-04-30T01:20:09;94006.39;;;9.31;76.22
64211;BME280;50528;48.514;14.394;2023-04-30T01:20:57;94005.61;;;9.31;76.31
64211;BME280;50528;48.514;14.394;2023-04-30T01:21:32;94011.12;;;9.32;76.38
64211;BME280;50528;48.514;14.394;2023-04-30T01:24:38;94010.64;;;9.28;76.37
64211;BME280;50528;48.514;14.394;2023-04-30T01:28:19;94013.42;;;9.23;76.61
64211;BME280;50528;48.514;14.394;2023-04-30T01:28:53;94016.23;;;9.24;76.63
64211;BME280;50528;48.514;14.394;2023-04-30T01:29:29;94018.66;;;9.25;76.77
64211;BME280;50528;48.514;14.394;2023-04-30T01:30:05;94010.66;;;9.24;76.81
64211;BME280;50528;48.514;14.394;2023-04-30T01:30:40;94015.96;;;9.29;76.91
64211;BME280;50528;48.514;14.394;2023-04-30T01:31:18;94017.98;;;9.31;76.87
64211;BME280;50528;48.514;14.394;2023-04-30T01:31:51;94014.42;;;9.31;76.88
64211;BME280;50528;48.514;14.394;2023-04-30T01:32:27;94016.42;;;9.32;76.97
64211;BME280;50528;48.514;14.394;2023-04-30T01:33:04;94019.30;;;9.33;76.90
64211;BME280;50528;48.514;14.394;2023-04-30T01:33:38;94016.19;;;9.33;76.92
64211;BME280;50528;48.514;14.394;2023-04-30T01:34:11;94018.33;;;9.33;76.84
64211;BME280;50528;48.514;14.394;2023-04-30T01:34:44;94016.90;;;9.34;76.92
64211;BME280;50528;48.514;14.394;2023-04-30T01:35:18;94016.15;;;9.37;76.93
64211;BME280;50528;48.514;14.394;2023-04-30T01:37:35;94018.35;;;9.34;76.87
64211;BME280;50528;48.514;14.394;2023-04-30T01:39:14;94014.21;;;9.31;76.96
64211;BME280;50528;48.514;14.394;2023-04-30T01:40:43;94014.95;;;9.29;77.00
64211;BME280;50528;48.514;14.394;2023-04-30T01:42:38;94013.22;;;9.32;76.93
64211;BME280;50528;48.514;14.394;2023-04-30T01:46:30;94020.30;;;9.22;77.27
64211;BME280;50528;48.514;14.394;2023-04-30T01:47:08;94024.78;;;9.22;77.31
64211;BME280;50528;48.514;14.394;2023-04-30T01:47:48;94020.89;;;9.21;77.31
64211;BME280;50528;48.514;14.394;2023-04-30T01:48:38;94024.20;;;9.15;77.30
64211;BME280;50528;48.514;14.394;2023-04-30T01:50:47;94029.59;;;9.16;77.38
64211;BME280;50528;48.514;14.394;2023-04-30T01:51:32;94028.90;;;9.12;77.35
64211;BME280;50528;48.514;14.394;2023-04-30T01:53:08;94026.26;;;9.11;77.40
64211;BME280;50528;48.514;14.394;2023-04-30T01:53:23;94030.80;;;9.10;77.38
64211;BME280;50528;48.514;14.394;2023-04-30T01:54:54;94029.70;;;9.08;77.51
64211;BME280;50528;48.514;14.394;2023-04-30T01:55:41;94031.36;;;9.10;77.58
64211;BME280;50528;48.514;14.394;2023-04-30T01:56:26;94031.08;;;9.11;77.66
64211;BME280;50528;48.514;14.394;2023-04-30T01:57:05;94032.42;;;9.12;77.71
64211;BME280;50528;48.514;14.394;2023-04-30T01:57:45;94033.42;;;9.13;77.75
64211;BME280;50528;48.514;14.394;2023-04-30T01:58:23;94032.69;;;9.12;77.82
64211;BME280;50528;48.514;14.394;2023-04-30T01:58:58;94036.42;;;9.14;77.86
64211;BME280;50528;48.514;14.394;2023-04-30T01:59:38;94032.92;;;9.14;77.86
64211;BME280;50528;48.514;14.394;2023-04-30T02:00:12;94034.59;;;9.16;77.77
64211;BME280;50528;48.514;14.394;2023-04-30T02:00:50;94030.54;;;9.17;77.88
64211;BME280;50528;48.514;14.394;2023-04-30T02:01:26;94033.42;;;9.18;77.81
64211;BME280;50528;48.514;14.394;2023-04-30T02:02:01;94031.20;;;9.17;77.87
64211;BME280;50528;48.514;14.394;2023-04-30T02:02:34;94033.48;;;9.18;77.89
64211;BME280;50528;48.514;14.394;2023-04-30T02:03:08;94031.49;;;9.19;77.90
64211;BME280;50528;48.514;14.394;2023-04-30T02:03:42;94032.03;;;9.20;77.97
64211;BME280;50528;48.514;14.394;2023-04-30T02:04:15;94026.92;;;9.18;77.96
64211;BME280;50528;48.514;14.394;2023-04-30T02:04:49;94026.02;;;9.18;77.89
64211;BME280;50528;48.514;14.394;2023-04-30T02:05:23;94030.89;;;9.21;77.89
64211;BME280;50528;48.514;14.394;2023-04-30T02:05:57;94024.78;;;9.22;77.92
64211;BME280;50528;48.514;14.394;2023-04-30T02:06:31;94028.03;;;9.23;77.95
64211;BME280;50528;48.514;14.394;2023-04-30T02:07:05;94028.20;;;9.24;77.92
64211;BME280;50528;48.514;14.394;2023-04-30T02:07:41;94026.98;;;9.24;77.86
64211;BME280;50528;48.514;14.394;2023-04-30T02:08:16;94027.25;;;9.25;77.90
64211;BME280;50528;48.514;14.394;2023-04-30T02:08:50;94024.52;;;9.25;77.89
64211;BME280;50528;48.514;14.394;2023-04-30T02:09:24;94026.36;;;9.27;77.96
64211;BME280;50528;48.514;14.394;2023-04-30T02:09:57;94024.56;;;9.26;77.71
64211;BME280;50528;48.514;14.394;2023-04-30T02:10:31;94027.46;;;9.25;77.74
64211;BME280;50528;48.514;14.394;2023-04-30T02:11:05;94026.86;;;9.26;77.75
64211;BME280;50528;48.514;14.394;2023-04-30T02:11:38;94030.50;;;9.25;77.77
64211;BME280;50528;48.514;14.394;2023-04-30T02:12:12;94031.36;;;9.25;77.57
64211;BME280;50528;48.514;14.394;2023-04-30T02:12:47;94032.90;;;9.24;77.63
64211;BME280;50528;48.514;14.394;2023-04-30T02:13:20;94031.48;;;9.21;77.72
64211;BME280;50528;48.514;14.394;2023-04-30T02:13:54;94030.94;;;9.20;77.75
64211;BME280;50528;48.514;14.394;2023-04-30T02:14:30;94030.02;;;9.19;77.80
64211;BME280;50528;48.514;14.394;2023-04-30T02:15:04;94027.84;;;9.20;77.92
64211;BME280;50528;48.514;14.394;2023-04-30T02:15:38;94029.93;;;9.20;77.82
64211;BME280;50528;48.514;14.394;2023-04-30T02:16:11;94034.49;;;9.20;77.89
64211;BME280;50528;48.514;14.394;2023-04-30T02:16:45;94030.98;;;9.22;77.97
64211;BME280;50528;48.514;14.394;2023-04-30T02:17:24;94029.84;;;9.21;77.81
64211;BME280;50528;48.514;14.394;2023-04-30T02:18:00;94033.80;;;9.19;77.88
64211;BME280;50528;48.514;14.394;2023-04-30T02:18:33;94033.74;;;9.18;77.90
64211;BME280;50528;48.514;14.394;2023-04-30T03:36:12;94093.34;;;8.85;78.74
64211;BME280;50528;48.514;14.394;2023-04-30T03:36:45;94091.87;;;8.89;78.85
64211;BME280;50528;48.514;14.394;2023-04-30T03:37:19;94092.68;;;8.90;79.00
64211;BME280;50528;48.514;14.394;2023-04-30T03:37:52;94097.30;;;8.91;78.95
64211;BME280;50528;48.514;14.394;2023-04-30T03:38:25;94097.63;;;8.93;78.88
64211;BME280;50528;48.514;14.394;2023-04-30T03:39:01;94097.41;;;8.95;78.91
64211;BME280;50528;48.514;14.394;2023-04-30T03:39:35;94098.05;;;8.96;78.85
64211;BME280;50528;48.514;14.394;2023-04-30T03:40:10;94098.78;;;8.98;78.81
64211;BME280;50528;48.514;14.394;2023-04-30T03:40:43;94094.69;;;9.00;78.88
64211;BME280;50528;48.514;14.394;2023-04-30T03:41:17;94094.96;;;9.02;78.89
64211;BME280;50528;48.514;14.394;2023-04-30T03:41:51;94092.59;;;9.03;78.85
64211;BME280;50528;48.514;14.394;2023-04-30T03:42:24;94093.86;;;9.06;78.73
64211;BME280;50528;48.514;14.394;2023-04-30T03:42:57;94090.55;;;9.06;78.73
64211;BME280;50528;48.514;14.394;2023-04-30T03:43:31;94090.66;;;9.09;78.77
64211;BME280;50528;48.514;14.394;2023-04-30T03:44:04;94089.84;;;9.12;78.79
64211;BME280;50528;48.514;14.394;2023-04-30T03:44:38;94087.84;;;9.12;78.64
64211;BME280;50528;48.514;14.394;2023-04-30T03:45:11;94091.08;;;9.14;78.70
64211;BME280;50528;48.514;14.394;2023-04-30T03:45:45;94087.27;;;9.17;78.66
64211;BME280;50528;48.514;14.394;2023-04-30T03:47:17;94087.71;;;9.14;78.41
64211;BME280;50528;48.514;14.394;2023-04-30T03:47:51;94088.55;;;9.14;78.60
64211;BME280;50528;48.514;14.394;2023-04-30T03:48:24;94090.67;;;9.15;78.50
64211;BME280;50528;48.514;14.394;2023-04-30T03:48:58;94088.70;;;9.15;78.46
64211;BME280;50528;48.514;14.394;2023-04-30T03:49:31;94089.42;;;9.15;78.55
64211;BME280;50528;48.514;14.394;2023-04-30T03:50:05;94092.58;;;9.18;78.44
64211;BME280;50528;48.514;14.394;2023-04-30T03:51:39;94088.86;;;9.18;78.32
64211;BME280;50528;48.514;14.394;2023-04-30T03:52:14;94092.64;;;9.18;78.40
64211;BME280;50528;48.514;14.394;2023-04-30T03:52:47;94089.19;;;9.19;78.37
64211;BME280;50528;48.514;14.394;2023-04-30T03:53:21;94090.01;;;9.20;78.38
64211;BME280;50528;48.514;14.394;2023-04-30T03:53:55;94088.32;;;9.22;78.38
64211;BME280;50528;48.514;14.394;2023-04-30T03:54:28;94088.39;;;9.23;78.35
64211;BME280;50528;48.514;14.394;2023-04-30T03:55:02;94088.04;;;9.24;78.35
64211;BME280;50528;48.514;14.394;2023-04-30T03:55:36;94085.46;;;9.25;78.35
64211;BME280;50528;48.514;14.394;2023-04-30T03:56:09;94085.36;;;9.25;78.23
64211;BME280;50528;48.514;14.394;2023-04-30T03:56:43;94083.40;;;9.26;78.28
64211;BME280;50528;48.514;14.394;2023-04-30T03:57:16;94085.79;;;9.27;78.19
64211;BME280;50528;48.514;14.394;2023-04-30T03:57:50;94086.59;;;9.28;78.26
64211;BME280;50528;48.514;14.394;2023-04-30T03:58:24;94084.89;;;9.29;78.33
64211;BME280;50528;48.514;14.394;2023-04-30T03:58:57;94086.69;;;9.30;78.27
64211;BME280;50528;48.514;14.394;2023-04-30T04:00:02;94090.96;;;9.31;78.25
64211;BME280;50528;48.514;14.394;2023-04-30T04:00:44;94089.33;;;9.28;78.02
64211;BME280;50528;48.514;14.394;2023-04-30T04:01:21;94091.36;;;9.28;78.20
64211;BME280;50528;48.514;14.394;2023-04-30T04:01:54;94086.30;;;9.29;78.15
64211;BME280;50528;48.514;14.394;2023-04-30T04:02:30;94090.57;;;9.29;78.28
64211;BME280;50528;48.514;14.394;2023-04-30T04:03:04;94092.48;;;9.30;78.14
64211;BME280;50528;48.514;14.394;2023-04-30T04:03:37;94088.68;;;9.30;78.11
64211;BME280;50528;48.514;14.394;2023-04-30T04:04:11;94092.07;;;9.32;78.05
64211;BME280;50528;48.514;14.394;2023-04-30T04:04:48;94091.77;;;9.33;78.05
64211;BME280;50528;48.514;14.394;2023-04-30T04:05:22;94092.73;;;9.34;78.12
64211;BME280;50528;48.514;14.394;2023-04-30T04:05:56;94093.52;;;9.33;77.90
64211;BME280;50528;48.514;14.394;2023-04-30T04:06:29;94093.65;;;9.34;78.00
64211;BME280;50528;48.514;14.394;2023-04-30T04:07:15;94095.27;;;9.34;77.76
64211;BME280;50528;48.514;14.394;2023-04-30T04:07:48;94094.88;;;9.33;77.87
64211;BME280;50528;48.514;14.394;2023-04-30T04:08:24;94099.69;;;9.32;77.90
64211;BME280;50528;48.514;14.394;2023-04-30T04:09:02;94095.77;;;9.33;77.91
64211;BME280;50528;48.514;14.394;2023-04-30T04:09:36;94091.93;;;9.33;77.89
64211;BME280;50528;48.514;14.394;2023-04-30T04:10:10;94098.80;;;9.33;77.84
64211;BME280;50528;48.514;14.394;2023-04-30T04:10:43;94100.27;;;9.32;77.84
64211;BME280;50528;48.514;14.394;2023-04-30T04:11:17;94098.88;;;9.33;77.99
64211;BME280;50528;48.514;14.394;2023-04-30T04:11:50;94098.36;;;9.34;77.97
64211;BME280;50528;48.514;14.394;2023-04-30T04:12:23;94095.73;;;9.36;77.98
64211;BME280;50528;48.514;14.394;2023-04-30T04:12:57;94099.56;;;9.36;77.95
64211;BME280;50528;48.514;14.394;2023-04-30T04:13:30;94095.06;;;9.36;78.02
64211;BME280;50528;48.514;14.394;2023-04-30T04:14:04;94100.88;;;9.36;77.98
64211;BME280;50528;48.514;14.394;2023-04-30T04:14:38;94099.58;;;9.38;78.03
64211;BME280;50528;48.514;14.394;2023-04-30T04:15:11;94098.64;;;9.38;78.08
64211;BME280;50528;48.514;14.394;2023-04-30T04:15:45;94099.92;;;9.39;78.05
64211;BME280;50528;48.514;14.394;2023-04-30T04:16:19;94097.14;;;9.39;78.09
64211;BME280;50528;48.514;14.394;2023-04-30T04:16:52;94097.67;;;9.41;78.09
64211;BME280;50528;48.514;14.394;2023-04-30T04:17:26;94097.67;;;9.41;78.05
64211;BME280;50528;48.514;14.394;2023-04-30T04:17:59;94101.23;;;9.41;78.04
64211;BME280;50528;48.514;14.394;2023-04-30T04:18:33;94097.46;;;9.41;78.04
64211;BME280;50528;48.514;14.394;2023-04-30T04:19:07;94098.27;;;9.42;77.91
64211;BME280;50528;48.514;14.394;2023-04-30T04:19:41;94097.94;;;9.41;77.93
64211;BME280;50528;48.514;14.394;2023-04-30T04:20:14;94098.45;;;9.41;77.80
64211;BME280;50528;48.514;14.394;2023-04-30T04:20:50;94099.85;;;9.41;77.87
64211;BME280;50528;48.514;14.394;2023-04-30T04:21:24;94100.89;;;9.39;77.79
64211;BME280;50528;48.514;14.394;2023-04-30T04:21:59;94098.12;;;9.38;77.77
64211;BME280;50528;48.514;14.394;2023-04-30T04:22:33;94097.75;;;9.38;77.79
64211;BME280;50528;48.514;14.394;2023-04-30T04:23:06;94100.98;;;9.39;77.84
64211;BME280;50528;48.514;14.394;2023-04-30T04:23:39;94098.03;;;9.39;77.82
64211;BME280;50528;48.514;14.394;2023-04-30T04:24:13;94096.77;;;9.39;77.83
64211;BME280;50528;48.514;14.394;2023-04-30T04:24:47;94100.29;;;9.39;77.87
64211;BME280;50528;48.514;14.394;2023-04-30T04:25:23;94098.73;;;9.37;77.62
64211;BME280;50528;48.514;14.394;2023-04-30T04:25:57;94101.21;;;9.37;77.78
64211;BME280;50528;48.514;14.394;2023-04-30T04:26:30;94100.81;;;9.39;77.87
64211;BME280;50528;48.514;14.394;2023-04-30T04:27:04;94100.14;;;9.39;77.74
64211;BME280;50528;48.514;14.394;2023-04-30T04:27:39;94101.48;;;9.40;77.77
64211;BME280;50528;48.514;14.394;2023-04-30T04:28:13;94104.83;;;9.40;77.69
64211;BME280;50528;48.514;14.394;2023-04-30T04:28:46;94106.39;;;9.41;77.77
64211;BME280;50528;48.514;14.394;2023-04-30T04:29:20;94105.33;;;9.41;77.77
64211;BME280;50528;48.514;14.394;2023-04-30T04:29:53;94106.02;;;9.42;77.73
64211;BME280;50528;48.514;14.394;2023-04-30T04:30:27;94103.52;;;9.43;77.71
64211;BME280;50528;48.514;14.394;2023-04-30T04:31:01;94107.20;;;9.44;77.76
64211;BME280;50528;48.514;14.394;2023-04-30T04:31:35;94107.96;;;9.45;77.71
64211;BME280;50528;48.514;14.394;2023-04-30T04:32:08;94109.67;;;9.47;77.72
64211;BME280;50528;48.514;14.394;2023-04-30T04:32:42;94103.29;;;9.50;77.71
64211;BME280;50528;48.514;14.394;2023-04-30T04:33:21;94106.98;;;9.49;77.60
64211;BME280;50528;48.514;14.394;2023-04-30T04:33:57;94107.35;;;9.48;77.58
64211;BME280;50528;48.514;14.394;2023-04-30T04:34:32;94109.08;;;9.49;77.59
64211;BME280;50528;48.514;14.394;2023-04-30T04:35:06;94107.29;;;9.51;77.76
64211;BME280;50528;48.514;14.394;2023-04-30T04:35:40;94108.67;;;9.52;77.67
64211;BME280;50528;48.514;14.394;2023-04-30T04:36:13;94107.78;;;9.52;77.55
64211;BME280;50528;48.514;14.394;2023-04-30T04:36:46;94112.19;;;9.54;77.61
64211;BME280;50528;48.514;14.394;2023-04-30T04:37:23;94115.06;;;9.53;77.61
64211;BME280;50528;48.514;14.394;2023-04-30T04:37:56;94110.45;;;9.54;77.62
64211;BME280;50528;48.514;14.394;2023-04-30T04:38:31;94114.80;;;9.55;77.67
64211;BME280;50528;48.514;14.394;2023-04-30T04:39:04;94111.91;;;9.57;77.74
64211;BME280;50528;48.514;14.394;2023-04-30T04:39:41;94112.27;;;9.58;77.71
64211;BME280;50528;48.514;14.394;2023-04-30T04:40:14;94112.40;;;9.59;77.77
64211;BME280;50528;48.514;14.394;2023-04-30T04:40:51;94115.08;;;9.60;77.74
64211;BME280;50528;48.514;14.394;2023-04-30T04:41:25;94115.27;;;9.62;77.70
64211;BME280;50528;48.514;14.394;2023-04-30T04:41:59;94113.20;;;9.63;77.47
64211;BME280;50528;48.514;14.394;2023-04-30T04:42:33;94111.40;;;9.63;77.51
64211;BME280;50528;48.514;14.394;2023-04-30T04:43:06;94114.27;;;9.64;77.67
64211;BME280;50528;48.514;14.394;2023-04-30T04:43:40;94109.89;;;9.66;77.63
64211;BME280;50528;48.514;14.394;2023-04-30T04:44:14;94109.33;;;9.67;77.54
64211;BME280;50528;48.514;14.394;2023-04-30T04:44:47;94109.58;;;9.66;77.41
64211;BME280;50528;48.514;14.394;2023-04-30T04:45:21;94111.52;;;9.69;77.50